Time;durP1;ratioP1;P1;durP2;ratioP2;P2;SDS_P1;SDS_P2;PMS_P1;PMS_P2;Temp;Humidity;BMP_temperature;BMP_pressure;BME280_temperature;BME280_humidity;BME280_pressure;Samples;Min_cycle;Max_cycle;Signal;HPM_P1;HPM_P2
2021/07/14 00:01:12;;;;;;;8.65;4.63;;;;;;;;;;5004880;28;21070;-58
2021/07/14 00:03:38;;;;;;;8.05;3.83;;;;;;;;;;5015776;28;20036;-59
2021/07/14 00:06:12;;;;;;;7.88;4.40;;;;;;;;;;5016921;28;20076;-58
2021/07/14 00:08:44;;;;;;;9.68;4.40;;;;;;;;;;5001018;28;20142;-59
2021/07/14 00:11:15;;;;;;;7.35;3.92;;;;;;;;;;5003889;28;20033;-58
2021/07/14 00:14:02;;;;;;;7.60;4.15;;;;;;;;;;5010408;28;20132;-57
2021/07/14 00:22:10;;;;;;;7.63;4.13;;;;;;;;;;5010117;28;22062;-58
2021/07/14 00:24:36;;;;;;;8.25;4.25;;;;;;;;;;5011700;28;20584;-57
2021/07/14 00:27:05;;;;;;;8.57;4.25;;;;;;;;;;5015044;28;20782;-58
2021/07/14 00:29:33;;;;;;;12.18;4.25;;;;;;;;;;5011066;28;20132;-58
2021/07/14 00:31:59;;;;;;;8.45;4.25;;;;;;;;;;5010244;28;20053;-58
2021/07/14 00:34:25;;;;;;;10.27;4.70;;;;;;;;;;5007724;28;20478;-58
2021/07/14 00:36:51;;;;;;;9.45;4.72;;;;;;;;;;5010324;28;20157;-58
2021/07/14 00:39:17;;;;;;;8.35;4.72;;;;;;;;;;5007946;28;20034;-57
2021/07/14 00:41:42;;;;;;;9.50;4.35;;;;;;;;;;5009404;28;20741;-57
2021/07/14 00:44:08;;;;;;;8.10;4.35;;;;;;;;;;5011702;28;20427;-58
2021/07/14 00:46:34;;;;;;;8.60;4.82;;;;;;;;;;5010206;28;20041;-58
2021/07/14 00:49:00;;;;;;;10.43;4.47;;;;;;;;;;5011354;28;20062;-57
2021/07/14 00:51:27;;;;;;;14.25;4.65;;;;;;;;;;5009476;28;20073;-58
2021/07/14 00:53:53;;;;;;;16.20;4.57;;;;;;;;;;5009403;28;20275;-58
2021/07/14 00:56:19;;;;;;;8.90;4.82;;;;;;;;;;5008502;28;20029;-58
2021/07/14 00:58:46;;;;;;;10.25;4.60;;;;;;;;;;5010985;28;20361;-57
2021/07/14 01:01:12;;;;;;;13.18;4.53;;;;;;;;;;5010538;28;20045;-55
2021/07/14 01:03:50;;;;;;;10.65;5.05;;;;;;;;;;5010205;28;20040;-57
2021/07/14 01:06:21;;;;;;;8.82;4.13;;;;;;;;;;5013240;28;20041;-58
2021/07/14 01:09:07;;;;;;;7.90;4.50;;;;;;;;;;5010357;28;20083;-57
2021/07/14 01:11:36;;;;;;;10.10;4.60;;;;;;;;;;5009480;28;20394;-58
2021/07/14 01:14:01;;;;;;;23.27;5.13;;;;;;;;;;5010528;28;20513;-57
2021/07/14 01:16:32;;;;;;;10.48;5.32;;;;;;;;;;5008578;28;20038;-58
2021/07/14 01:19:20;;;;;;;9.40;4.53;;;;;;;;;;5009984;28;20052;-55
2021/07/14 01:21:48;;;;;;;6.85;4.00;;;;;;;;;;5010639;28;20044;-57
2021/07/14 01:24:17;;;;;;;7.28;4.40;;;;;;;;;;5010302;28;20409;-58
2021/07/14 01:27:05;;;;;;;8.02;4.10;;;;;;;;;;5011195;28;20046;-58
2021/07/14 01:29:33;;;;;;;10.13;4.35;;;;;;;;;;5010273;28;20507;-56
2021/07/14 01:32:00;;;;;;;9.30;4.57;;;;;;;;;;5010104;28;20577;-58
2021/07/14 01:34:26;;;;;;;10.90;4.72;;;;;;;;;;5009342;28;20045;-58
2021/07/14 01:36:53;;;;;;;6.70;3.80;;;;;;;;;;5009826;28;20037;-58
2021/07/14 01:39:19;;;;;;;8.02;4.30;;;;;;;;;;5010142;28;20052;-57
2021/07/14 01:41:46;;;;;;;8.52;4.78;;;;;;;;;;5008733;28;20053;-58
2021/07/14 01:44:13;;;;;;;9.98;3.95;;;;;;;;;;5011381;28;20212;-58
2021/07/14 01:46:40;;;;;;;9.23;4.55;;;;;;;;;;5010330;28;20042;-56
2021/07/14 01:49:08;;;;;;;7.47;4.22;;;;;;;;;;5010553;28;20520;-57
2021/07/14 01:51:37;;;;;;;10.30;4.10;;;;;;;;;;5008629;28;20037;-57
2021/07/14 01:54:04;;;;;;;8.07;4.05;;;;;;;;;;5010168;28;20918;-58
2021/07/14 01:56:33;;;;;;;10.57;4.60;;;;;;;;;;5005554;28;20045;-59
2021/07/14 01:59:00;;;;;;;9.38;4.65;;;;;;;;;;5008787;28;20049;-58
2021/07/14 02:01:26;;;;;;;8.13;4.68;;;;;;;;;;5008214;28;20387;-58
2021/07/14 02:06:37;;;;;;;8.88;4.47;;;;;;;;;;5007387;28;20541;-58
2021/07/14 02:09:03;;;;;;;13.15;4.93;;;;;;;;;;5005666;28;20473;-58
2021/07/14 02:11:29;;;;;;;8.02;3.85;;;;;;;;;;5009055;28;20032;-58
2021/07/14 02:13:56;;;;;;;7.50;4.00;;;;;;;;;;5011235;28;20037;-58
2021/07/14 02:16:23;;;;;;;14.32;4.53;;;;;;;;;;5024323;28;20030;-59
2021/07/14 02:18:53;;;;;;;8.95;3.95;;;;;;;;;;5022068;28;20064;-58
2021/07/14 02:21:19;;;;;;;8.98;4.50;;;;;;;;;;5009488;28;20039;-57
2021/07/14 02:23:45;;;;;;;9.50;4.18;;;;;;;;;;5012609;28;21039;-58
2021/07/14 02:26:11;;;;;;;7.65;4.38;;;;;;;;;;5013834;28;20038;-58
2021/07/14 02:28:37;;;;;;;8.13;4.20;;;;;;;;;;5013325;28;20046;-58
2021/07/14 02:31:03;;;;;;;7.97;4.63;;;;;;;;;;5015244;28;20038;-58
2021/07/14 02:33:30;;;;;;;7.85;4.25;;;;;;;;;;5012472;28;20050;-54
2021/07/14 02:35:59;;;;;;;9.98;4.30;;;;;;;;;;5013791;28;20586;-58
2021/07/14 02:38:30;;;;;;;9.10;4.28;;;;;;;;;;5012308;28;20053;-58
2021/07/14 02:40:59;;;;;;;11.43;4.68;;;;;;;;;;5013940;28;20046;-57
2021/07/14 02:43:28;;;;;;;8.13;4.00;;;;;;;;;;5012707;28;20038;-57
2021/07/14 02:45:57;;;;;;;11.07;4.57;;;;;;;;;;5014488;28;20045;-58
2021/07/14 02:48:27;;;;;;;9.85;4.60;;;;;;;;;;5011688;28;20045;-58
2021/07/14 02:50:54;;;;;;;8.10;4.18;;;;;;;;;;5012243;28;20064;-58
2021/07/14 02:53:32;;;;;;;7.43;4.10;;;;;;;;;;5012949;28;20056;-57
2021/07/14 02:56:00;;;;;;;12.07;4.53;;;;;;;;;;5015630;28;20751;-58
2021/07/14 02:58:28;;;;;;;7.93;4.15;;;;;;;;;;5015143;28;20052;-57
2021/07/14 03:00:55;;;;;;;10.23;3.97;;;;;;;;;;5013468;28;20514;-57
2021/07/14 03:03:22;;;;;;;8.68;4.45;;;;;;;;;;5014222;28;20130;-57
2021/07/14 03:05:49;;;;;;;14.55;4.65;;;;;;;;;;5014174;28;20101;-57
2021/07/14 03:08:15;;;;;;;8.10;4.30;;;;;;;;;;5016612;28;20056;-57
2021/07/14 03:10:44;;;;;;;9.35;4.93;;;;;;;;;;5016290;28;20056;-58
2021/07/14 03:13:10;;;;;;;11.43;4.78;;;;;;;;;;5015008;28;20133;-56
2021/07/14 03:15:37;;;;;;;8.00;4.35;;;;;;;;;;5013175;28;20129;-57
2021/07/14 03:18:03;;;;;;;9.48;4.68;;;;;;;;;;5013104;28;20045;-57
2021/07/14 03:20:29;;;;;;;11.27;5.07;;;;;;;;;;5012375;28;20478;-57
2021/07/14 03:22:55;;;;;;;16.45;5.03;;;;;;;;;;5010786;28;20037;-57
2021/07/14 03:25:22;;;;;;;12.55;4.85;;;;;;;;;;5013706;28;20042;-57
2021/07/14 03:27:49;;;;;;;9.05;4.20;;;;;;;;;;5014599;28;20105;-57
2021/07/14 03:30:15;;;;;;;15.88;5.00;;;;;;;;;;5012904;28;20789;-57
2021/07/14 03:32:41;;;;;;;13.40;5.00;;;;;;;;;;5013235;28;20134;-56
2021/07/14 03:35:07;;;;;;;11.48;4.80;;;;;;;;;;5012083;28;20046;-57
2021/07/14 03:37:34;;;;;;;10.35;4.68;;;;;;;;;;5010048;28;20041;-57
2021/07/14 03:40:01;;;;;;;8.43;4.60;;;;;;;;;;5013617;28;20034;-57
2021/07/14 03:42:27;;;;;;;8.98;4.63;;;;;;;;;;5010275;28;20084;-57
2021/07/14 03:44:54;;;;;;;8.60;4.53;;;;;;;;;;5011445;28;20047;-57
2021/07/14 03:47:20;;;;;;;9.57;4.47;;;;;;;;;;5010789;28;20119;-57
2021/07/14 03:49:46;;;;;;;11.30;4.78;;;;;;;;;;5010969;28;20040;-59
2021/07/14 03:52:12;;;;;;;8.18;4.40;;;;;;;;;;5013061;28;20053;-57
2021/07/14 03:54:39;;;;;;;11.77;5.13;;;;;;;;;;5011822;28;20409;-58
2021/07/14 03:57:05;;;;;;;12.27;4.43;;;;;;;;;;5012010;28;20046;-57
2021/07/14 03:59:31;;;;;;;11.48;4.63;;;;;;;;;;5011956;28;20029;-56
2021/07/14 04:01:57;;;;;;;9.60;4.28;;;;;;;;;;5011190;28;20399;-57
2021/07/14 04:04:24;;;;;;;14.15;4.43;;;;;;;;;;5011330;28;20053;-57
2021/07/14 04:07:01;;;;;;;10.43;4.75;;;;;;;;;;5011524;28;20150;-57
2021/07/14 04:09:27;;;;;;;15.25;4.47;;;;;;;;;;5009476;28;20049;-56
2021/07/14 04:11:57;;;;;;;7.32;4.53;;;;;;;;;;5011928;28;20053;-58
2021/07/14 04:14:23;;;;;;;9.07;4.65;;;;;;;;;;5017784;28;20046;-57
2021/07/14 04:16:49;;;;;;;8.13;4.43;;;;;;;;;;5010181;28;20052;-58
2021/07/14 04:19:14;;;;;;;12.50;4.68;;;;;;;;;;5009415;28;20038;-57
2021/07/14 04:21:40;;;;;;;12.45;4.75;;;;;;;;;;5010975;28;20467;-58
2021/07/14 04:24:06;;;;;;;9.23;4.55;;;;;;;;;;5011137;28;20049;-58
2021/07/14 04:26:33;;;;;;;8.80;4.85;;;;;;;;;;5010460;28;20036;-58
2021/07/14 04:28:59;;;;;;;10.20;3.92;;;;;;;;;;5010263;28;20042;-58
2021/07/14 04:31:25;;;;;;;12.93;4.53;;;;;;;;;;5009795;28;20048;-58
2021/07/14 04:33:51;;;;;;;10.70;4.82;;;;;;;;;;5014366;28;20047;-58
2021/07/14 04:36:17;;;;;;;9.25;4.00;;;;;;;;;;5013547;28;20034;-57
2021/07/14 04:38:43;;;;;;;8.05;4.43;;;;;;;;;;5011889;28;20073;-57
2021/07/14 04:41:09;;;;;;;11.75;5.28;;;;;;;;;;5013064;28;20060;-56
2021/07/14 04:43:34;;;;;;;10.98;4.53;;;;;;;;;;5011382;28;20048;-58
2021/07/14 04:46:00;;;;;;;8.57;4.47;;;;;;;;;;5006811;28;20136;-56
2021/07/14 04:48:26;;;;;;;11.45;4.65;;;;;;;;;;5010899;28;20096;-59
2021/07/14 04:50:52;;;;;;;9.25;4.10;;;;;;;;;;5014233;28;20059;-58
2021/07/14 04:53:18;;;;;;;18.25;4.95;;;;;;;;;;5028329;28;20506;-57
2021/07/14 04:55:44;;;;;;;9.20;4.32;;;;;;;;;;5012851;28;20041;-56
2021/07/14 04:58:10;;;;;;;7.57;4.15;;;;;;;;;;5013854;28;20148;-56
2021/07/14 05:00:36;;;;;;;7.43;4.15;;;;;;;;;;5009331;28;20079;-55
2021/07/14 05:03:01;;;;;;;9.82;4.05;;;;;;;;;;5009669;28;20033;-56
2021/07/14 05:05:27;;;;;;;9.40;5.00;;;;;;;;;;5008224;28;20041;-56
2021/07/14 05:07:53;;;;;;;9.20;4.93;;;;;;;;;;5010342;28;20417;-53
2021/07/14 05:10:24;;;;;;;6.70;3.90;;;;;;;;;;5009517;28;20073;-56
2021/07/14 05:12:51;;;;;;;8.80;4.35;;;;;;;;;;5009258;28;21142;-55
2021/07/14 05:15:17;;;;;;;7.82;4.30;;;;;;;;;;5012696;28;20095;-57
2021/07/14 05:17:43;;;;;;;10.60;4.55;;;;;;;;;;5011447;28;20037;-56
2021/07/14 05:20:09;;;;;;;10.05;4.47;;;;;;;;;;5008699;28;20041;-57
2021/07/14 05:22:35;;;;;;;8.75;4.55;;;;;;;;;;5011032;28;20041;-56
2021/07/14 05:25:00;;;;;;;8.07;4.30;;;;;;;;;;5010079;28;20928;-54
2021/07/14 05:27:26;;;;;;;8.50;4.50;;;;;;;;;;5008949;28;20044;-56
2021/07/14 05:29:52;;;;;;;11.48;4.68;;;;;;;;;;5009397;28;20037;-56
2021/07/14 05:32:18;;;;;;;8.02;4.47;;;;;;;;;;5009366;28;20050;-57
2021/07/14 05:34:44;;;;;;;9.40;4.38;;;;;;;;;;5011392;28;20050;-56
2021/07/14 05:37:10;;;;;;;13.43;5.05;;;;;;;;;;5010945;28;20489;-56
2021/07/14 05:39:36;;;;;;;13.57;4.85;;;;;;;;;;5010169;28;20104;-53
2021/07/14 05:42:06;;;;;;;10.10;4.68;;;;;;;;;;5008419;28;20042;-56
2021/07/14 05:44:32;;;;;;;10.48;5.00;;;;;;;;;;5009275;28;20203;-56
2021/07/14 05:46:58;;;;;;;12.55;4.95;;;;;;;;;;5009947;28;20048;-55
2021/07/14 05:49:24;;;;;;;10.82;4.70;;;;;;;;;;5009251;28;20037;-57
2021/07/14 05:51:50;;;;;;;7.35;4.30;;;;;;;;;;5009000;28;20498;-55
2021/07/14 05:54:16;;;;;;;11.02;5.32;;;;;;;;;;5010366;28;20037;-56
2021/07/14 05:56:42;;;;;;;15.32;4.75;;;;;;;;;;5010066;28;20038;-56
2021/07/14 05:59:07;;;;;;;8.80;4.30;;;;;;;;;;5009319;28;20702;-56
2021/07/14 06:01:33;;;;;;;8.45;4.70;;;;;;;;;;5007932;28;20641;-56
2021/07/14 06:04:00;;;;;;;8.98;4.57;;;;;;;;;;5009460;28;20570;-56
2021/07/14 06:06:26;;;;;;;10.15;4.55;;;;;;;;;;5010623;28;21969;-56
2021/07/14 06:08:52;;;;;;;11.90;5.03;;;;;;;;;;5011655;28;20038;-56
2021/07/14 06:11:18;;;;;;;8.90;4.35;;;;;;;;;;5010819;28;20092;-56
2021/07/14 06:13:43;;;;;;;8.55;4.68;;;;;;;;;;5007713;28;20099;-54
2021/07/14 06:16:09;;;;;;;8.75;4.68;;;;;;;;;;5010032;28;20046;-56
2021/07/14 06:18:36;;;;;;;9.90;4.63;;;;;;;;;;5007261;28;20143;-56
2021/07/14 06:21:02;;;;;;;8.02;4.40;;;;;;;;;;5006760;28;20054;-56
2021/07/14 06:23:27;;;;;;;11.05;4.80;;;;;;;;;;5007772;28;20501;-56
2021/07/14 06:25:54;;;;;;;10.90;4.93;;;;;;;;;;5008897;28;20251;-56
2021/07/14 06:28:20;;;;;;;11.85;4.70;;;;;;;;;;5009403;28;20042;-56
2021/07/14 06:30:46;;;;;;;11.07;5.00;;;;;;;;;;5009169;28;20048;-56
2021/07/14 06:33:12;;;;;;;9.68;4.75;;;;;;;;;;5010740;28;20082;-53
2021/07/14 06:35:38;;;;;;;8.85;4.63;;;;;;;;;;5008080;28;20054;-54
2021/07/14 06:38:04;;;;;;;8.30;4.55;;;;;;;;;;5008905;28;20041;-56
2021/07/14 06:40:32;;;;;;;9.40;5.43;;;;;;;;;;5007909;28;20049;-54
2021/07/14 06:43:00;;;;;;;8.45;4.15;;;;;;;;;;5008212;28;20046;-56
2021/07/14 06:45:27;;;;;;;9.52;4.78;;;;;;;;;;5008193;28;20495;-56
2021/07/14 06:47:53;;;;;;;9.50;4.70;;;;;;;;;;5009634;28;20515;-56
2021/07/14 06:50:20;;;;;;;9.50;4.72;;;;;;;;;;5008871;28;20050;-56
2021/07/14 06:52:46;;;;;;;9.43;4.47;;;;;;;;;;5008758;28;20049;-56
2021/07/14 06:55:12;;;;;;;8.90;4.45;;;;;;;;;;5010487;28;20038;-56
2021/07/14 06:57:39;;;;;;;8.38;4.50;;;;;;;;;;5008088;28;20041;-56
2021/07/14 07:00:05;;;;;;;9.30;4.95;;;;;;;;;;5007886;28;20110;-54
2021/07/14 07:02:31;;;;;;;8.20;4.68;;;;;;;;;;5008295;28;20045;-56
2021/07/14 07:04:57;;;;;;;8.32;4.93;;;;;;;;;;5008102;28;20084;-56
2021/07/14 07:07:23;;;;;;;10.63;5.47;;;;;;;;;;5015243;28;20042;-55
2021/07/14 07:09:49;;;;;;;11.15;5.53;;;;;;;;;;5012538;28;20068;-56
2021/07/14 07:12:15;;;;;;;9.98;5.43;;;;;;;;;;5012333;28;20049;-57
2021/07/14 07:14:40;;;;;;;11.18;5.03;;;;;;;;;;5012214;28;20072;-56
2021/07/14 07:17:06;;;;;;;12.25;5.47;;;;;;;;;;5012903;28;20111;-56
2021/07/14 07:19:32;;;;;;;9.63;5.18;;;;;;;;;;5009543;28;20074;-56
2021/07/14 07:21:58;;;;;;;12.57;5.32;;;;;;;;;;5011141;28;20088;-55
2021/07/14 07:24:24;;;;;;;9.55;4.72;;;;;;;;;;5027049;28;20053;-56
2021/07/14 07:26:50;;;;;;;9.98;4.57;;;;;;;;;;5014888;28;20051;-57
2021/07/14 07:29:16;;;;;;;10.07;5.00;;;;;;;;;;5013059;28;20061;-55
2021/07/14 07:31:42;;;;;;;9.23;4.47;;;;;;;;;;5011379;28;20096;-55
2021/07/14 07:34:08;;;;;;;13.90;5.13;;;;;;;;;;5012625;28;20487;-57
2021/07/14 07:36:33;;;;;;;9.23;5.43;;;;;;;;;;5012366;28;20045;-54
2021/07/14 07:38:59;;;;;;;13.38;5.18;;;;;;;;;;5011464;28;20046;-55
2021/07/14 07:41:25;;;;;;;21.00;5.95;;;;;;;;;;5008911;28;20056;-57
2021/07/14 07:43:52;;;;;;;8.88;5.03;;;;;;;;;;5012814;28;20697;-57
2021/07/14 07:46:18;;;;;;;8.85;4.78;;;;;;;;;;5014000;28;20042;-56
2021/07/14 07:48:44;;;;;;;9.20;5.25;;;;;;;;;;5011965;28;20376;-56
2021/07/14 07:51:09;;;;;;;15.15;5.50;;;;;;;;;;5011025;28;20087;-56
2021/07/14 07:53:36;;;;;;;13.32;5.28;;;;;;;;;;5010596;28;20042;-56
2021/07/14 07:56:02;;;;;;;11.88;5.70;;;;;;;;;;5012314;28;20042;-56
2021/07/14 07:58:28;;;;;;;14.00;5.93;;;;;;;;;;5010886;28;20462;-54
2021/07/14 08:00:54;;;;;;;11.45;5.55;;;;;;;;;;5011129;28;20042;-54
2021/07/14 08:03:20;;;;;;;11.75;5.88;;;;;;;;;;5010094;28;20053;-56
2021/07/14 08:05:45;;;;;;;15.75;4.97;;;;;;;;;;5011313;28;20044;-52
2021/07/14 08:08:12;;;;;;;12.50;5.22;;;;;;;;;;5012015;28;20053;-55
2021/07/14 08:10:37;;;;;;;12.82;5.80;;;;;;;;;;5012731;28;20048;-54
2021/07/14 08:13:04;;;;;;;12.98;4.78;;;;;;;;;;5011423;28;20572;-56
2021/07/14 08:15:30;;;;;;;12.65;5.20;;;;;;;;;;5012295;28;20042;-56
2021/07/14 08:17:56;;;;;;;12.27;5.32;;;;;;;;;;5011961;28;20048;-54
2021/07/14 08:20:23;;;;;;;10.13;4.88;;;;;;;;;;5009844;28;20042;-56
2021/07/14 08:22:50;;;;;;;10.98;5.22;;;;;;;;;;5010977;28;20061;-56
2021/07/14 08:25:16;;;;;;;13.05;5.03;;;;;;;;;;5011079;28;20065;-56
2021/07/14 08:27:42;;;;;;;8.98;4.78;;;;;;;;;;5025789;28;20205;-55
2021/07/14 08:30:09;;;;;;;14.15;5.55;;;;;;;;;;5012228;28;20079;-54
2021/07/14 08:32:34;;;;;;;11.68;5.07;;;;;;;;;;5010873;28;20169;-56
2021/07/14 08:35:00;;;;;;;10.50;4.97;;;;;;;;;;5025959;28;20042;-56
2021/07/14 08:37:26;;;;;;;11.77;4.93;;;;;;;;;;5009581;28;20045;-56
2021/07/14 08:39:53;;;;;;;11.02;5.10;;;;;;;;;;5009865;28;20113;-56
2021/07/14 08:42:20;;;;;;;8.90;4.72;;;;;;;;;;5008943;28;20053;-56
2021/07/14 08:44:46;;;;;;;11.40;5.25;;;;;;;;;;5026226;28;20041;-54
2021/07/14 08:47:12;;;;;;;11.88;5.40;;;;;;;;;;5011070;28;20069;-56
2021/07/14 08:49:40;;;;;;;17.00;5.63;;;;;;;;;;5010217;28;20057;-56
2021/07/14 08:52:06;;;;;;;10.07;5.30;;;;;;;;;;5009982;28;20440;-57
2021/07/14 08:54:32;;;;;;;12.13;5.60;;;;;;;;;;5009365;28;20037;-56
2021/07/14 08:56:58;;;;;;;13.15;5.88;;;;;;;;;;5009817;28;20052;-53
2021/07/14 08:59:24;;;;;;;11.43;5.45;;;;;;;;;;5010111;28;20042;-53
2021/07/14 09:01:49;;;;;;;16.13;5.55;;;;;;;;;;5009467;28;20690;-52
2021/07/14 09:04:16;;;;;;;10.55;5.38;;;;;;;;;;5013823;28;20394;-55
2021/07/14 09:06:42;;;;;;;12.75;5.30;;;;;;;;;;5009738;28;20070;-56
2021/07/14 09:09:07;;;;;;;12.45;4.88;;;;;;;;;;5010836;28;20144;-53
2021/07/14 09:11:52;;;;;;;9.25;5.25;;;;;;;;;;5009946;28;20030;-56
2021/07/14 09:14:31;;;;;;;11.50;5.53;;;;;;;;;;5010634;28;20625;-56
2021/07/14 09:16:58;;;;;;;10.10;4.93;;;;;;;;;;5010841;28;20033;-56
2021/07/14 09:19:25;;;;;;;10.88;5.53;;;;;;;;;;5008952;28;20045;-55
2021/07/14 09:21:51;;;;;;;9.15;4.78;;;;;;;;;;5009161;28;20335;-56
2021/07/14 09:24:27;;;;;;;13.20;5.47;;;;;;;;;;5010361;28;20042;-56
2021/07/14 09:26:56;;;;;;;12.93;5.38;;;;;;;;;;5012039;28;20038;-56
2021/07/14 09:29:23;;;;;;;10.88;5.40;;;;;;;;;;5008759;28;20046;-56
2021/07/14 09:31:49;;;;;;;12.38;5.28;;;;;;;;;;5012037;28;20046;-56
2021/07/14 09:34:21;;;;;;;9.90;5.75;;;;;;;;;;5011556;28;20752;-56
2021/07/14 09:36:48;;;;;;;14.55;5.47;;;;;;;;;;5010334;28;20040;-55
2021/07/14 09:39:14;;;;;;;10.70;5.45;;;;;;;;;;5010278;28;20041;-56
2021/07/14 09:41:39;;;;;;;11.45;5.63;;;;;;;;;;5008301;28;20418;-56
2021/07/14 09:44:18;;;;;;;13.23;5.80;;;;;;;;;;5010146;28;20046;-55
2021/07/14 09:47:03;;;;;;;12.20;5.82;;;;;;;;;;5010412;28;20454;-56
2021/07/14 09:49:34;;;;;;;10.77;5.32;;;;;;;;;;5011402;28;20061;-53
2021/07/14 09:52:10;;;;;;;12.05;5.35;;;;;;;;;;5009378;28;20576;-56
2021/07/14 09:54:36;;;;;;;14.88;5.53;;;;;;;;;;5008003;28;20044;-56
2021/07/14 09:57:28;;;;;;;11.63;5.05;;;;;;;;;;5009796;28;20888;-55
2021/07/14 09:59:54;;;;;;;11.57;5.07;;;;;;;;;;5007468;28;20446;-52
2021/07/14 10:02:20;;;;;;;12.02;5.50;;;;;;;;;;5007462;28;20053;-54
2021/07/14 10:04:47;;;;;;;11.90;5.30;;;;;;;;;;5008830;28;20438;-55
2021/07/14 10:07:18;;;;;;;10.55;5.32;;;;;;;;;;5009540;28;20518;-55
2021/07/14 10:09:44;;;;;;;11.60;5.75;;;;;;;;;;5009905;28;20144;-56
2021/07/14 10:12:26;;;;;;;12.73;5.68;;;;;;;;;;5009629;28;20141;-54
2021/07/14 10:14:52;;;;;;;13.45;6.22;;;;;;;;;;5008015;28;20969;-55
2021/07/14 10:17:56;;;;;;;14.77;6.10;;;;;;;;;;5010488;28;20041;-53
2021/07/14 10:20:22;;;;;;;14.57;5.97;;;;;;;;;;5005886;28;20534;-55
2021/07/14 10:22:56;;;;;;;13.55;6.25;;;;;;;;;;5005927;28;20365;-56
2021/07/14 10:25:22;;;;;;;11.90;5.43;;;;;;;;;;5007894;28;20168;-55
2021/07/14 10:27:49;;;;;;;16.35;5.82;;;;;;;;;;5011444;28;20046;-55
2021/07/14 10:30:16;;;;;;;68.35;7.88;;;;;;;;;;5010177;28;20037;-56
2021/07/14 10:32:42;;;;;;;11.75;5.95;;;;;;;;;;5016634;28;20558;-56
2021/07/14 10:35:12;;;;;;;10.60;5.82;;;;;;;;;;5007608;28;20172;-55
2021/07/14 10:37:38;;;;;;;16.10;5.82;;;;;;;;;;5008733;28;20168;-56
2021/07/14 10:40:06;;;;;;;13.48;6.13;;;;;;;;;;5008017;28;20053;-55
2021/07/14 10:42:33;;;;;;;14.68;5.45;;;;;;;;;;5008584;28;20048;-53
2021/07/14 10:44:59;;;;;;;11.18;6.05;;;;;;;;;;5012227;28;20503;-55
2021/07/14 10:47:25;;;;;;;14.18;6.40;;;;;;;;;;5012577;28;20083;-55
2021/07/14 10:49:51;;;;;;;15.45;6.20;;;;;;;;;;5015576;28;20126;-56
2021/07/14 10:52:17;;;;;;;16.58;6.97;;;;;;;;;;5012810;28;20057;-53
2021/07/14 10:54:43;;;;;;;14.48;6.35;;;;;;;;;;5012211;28;20083;-56
2021/07/14 10:57:09;;;;;;;18.88;6.68;;;;;;;;;;5013097;28;20111;-56
2021/07/14 10:59:36;;;;;;;13.93;6.35;;;;;;;;;;5010614;28;20049;-55
2021/07/14 11:02:02;;;;;;;12.02;6.15;;;;;;;;;;5012228;28;20041;-57
2021/07/14 11:04:28;;;;;;;9.88;5.85;;;;;;;;;;5013627;28;20030;-55
2021/07/14 11:06:57;;;;;;;12.48;5.97;;;;;;;;;;5012787;28;20417;-56
2021/07/14 11:09:37;;;;;;;12.63;6.88;;;;;;;;;;5014431;28;20041;-55
2021/07/14 11:12:04;;;;;;;18.85;6.60;;;;;;;;;;5012730;28;20049;-56
2021/07/14 11:14:35;;;;;;;18.70;6.30;;;;;;;;;;5011954;28;20084;-55
2021/07/14 11:17:01;;;;;;;13.07;6.38;;;;;;;;;;5010266;28;20064;-55
2021/07/14 11:19:42;;;;;;;13.80;6.40;;;;;;;;;;5011091;28;20034;-57
2021/07/14 11:22:08;;;;;;;16.13;6.13;;;;;;;;;;5012965;28;20130;-53
2021/07/14 11:24:45;;;;;;;15.77;6.82;;;;;;;;;;5011877;28;20133;-55
2021/07/14 11:27:20;;;;;;;12.18;5.88;;;;;;;;;;5013629;28;20563;-56
2021/07/14 11:29:46;;;;;;;16.15;6.90;;;;;;;;;;5011557;28;20096;-55
2021/07/14 11:32:31;;;;;;;13.95;6.20;;;;;;;;;;5013264;28;20111;-57
2021/07/14 11:34:58;;;;;;;12.98;6.28;;;;;;;;;;5011364;28;20754;-56
2021/07/14 11:37:30;;;;;;;12.68;6.38;;;;;;;;;;5013212;28;20072;-56
2021/07/14 11:40:15;;;;;;;11.77;5.97;;;;;;;;;;5013496;28;20045;-56
2021/07/14 11:43:01;;;;;;;9.70;5.68;;;;;;;;;;5012665;28;20372;-57
2021/07/14 11:45:33;;;;;;;10.93;5.97;;;;;;;;;;5012699;28;20491;-53
2021/07/14 11:47:59;;;;;;;16.65;6.40;;;;;;;;;;5014071;28;20514;-56
2021/07/14 11:50:47;;;;;;;11.70;5.15;;;;;;;;;;5010823;28;20786;-53
2021/07/14 11:53:31;;;;;;;10.90;5.72;;;;;;;;;;5011667;28;20207;-54
2021/07/14 11:56:06;;;;;;;11.55;5.70;;;;;;;;;;5009732;28;20040;-55
2021/07/14 11:58:50;;;;;;;12.18;5.75;;;;;;;;;;5010341;28;20044;-56
2021/07/14 12:01:22;;;;;;;16.02;5.80;;;;;;;;;;5011167;28;20061;-56
2021/07/14 12:04:00;;;;;;;10.50;5.57;;;;;;;;;;5011319;28;20042;-56
2021/07/14 12:06:52;;;;;;;11.52;5.72;;;;;;;;;;5013707;28;20039;-54
2021/07/14 12:09:18;;;;;;;11.63;5.47;;;;;;;;;;5001038;28;20078;-55
2021/07/14 12:11:44;;;;;;;14.32;5.93;;;;;;;;;;5011260;28;20735;-56
2021/07/14 12:14:14;;;;;;;10.75;5.97;;;;;;;;;;5010915;28;20092;-56
2021/07/14 12:16:44;;;;;;;13.07;6.78;;;;;;;;;;5009053;28;21047;-56
2021/07/14 12:19:10;;;;;;;11.85;5.57;;;;;;;;;;5010345;28;20053;-54
2021/07/14 12:21:37;;;;;;;12.38;5.75;;;;;;;;;;5011341;28;20037;-53
2021/07/14 12:24:03;;;;;;;11.93;5.60;;;;;;;;;;5010801;28;20034;-56
2021/07/14 12:26:28;;;;;;;12.32;6.38;;;;;;;;;;5010686;28;20038;-57
2021/07/14 12:28:55;;;;;;;14.07;5.70;;;;;;;;;;5013372;28;20045;-58
2021/07/14 12:31:21;;;;;;;13.05;5.72;;;;;;;;;;5012124;28;20038;-58
2021/07/14 12:33:51;;;;;;;12.77;5.75;;;;;;;;;;5009513;28;20103;-56
2021/07/14 12:36:18;;;;;;;11.70;5.35;;;;;;;;;;5009800;28;20499;-57
2021/07/14 12:38:51;;;;;;;11.13;5.38;;;;;;;;;;5009581;28;20129;-58
2021/07/14 12:41:17;;;;;;;10.40;6.03;;;;;;;;;;5012312;28;20558;-58
2021/07/14 12:43:43;;;;;;;14.18;6.15;;;;;;;;;;5010987;28;20042;-58
2021/07/14 12:46:08;;;;;;;12.07;5.85;;;;;;;;;;5010720;28;20037;-59
2021/07/14 12:48:34;;;;;;;10.35;5.55;;;;;;;;;;5012265;28;20056;-59
2021/07/14 12:51:00;;;;;;;14.20;5.40;;;;;;;;;;5011833;28;20034;-58
2021/07/14 12:53:26;;;;;;;10.25;5.88;;;;;;;;;;5013393;28;20053;-57
2021/07/14 12:55:57;;;;;;;12.15;6.70;;;;;;;;;;5011670;28;20088;-58
2021/07/14 12:58:23;;;;;;;14.02;6.50;;;;;;;;;;5010012;28;20754;-57
2021/07/14 13:01:01;;;;;;;18.25;6.50;;;;;;;;;;5012632;28;20087;-58
2021/07/14 13:03:31;;;;;;;14.43;5.63;;;;;;;;;;5012297;28;20076;-58
2021/07/14 13:05:57;;;;;;;12.98;6.57;;;;;;;;;;5012399;28;20167;-58
2021/07/14 13:08:27;;;;;;;11.10;5.95;;;;;;;;;;5010639;28;20069;-59
2021/07/14 13:10:57;;;;;;;12.68;6.28;;;;;;;;;;5013060;28;20045;-56
2021/07/14 13:13:23;;;;;;;12.75;5.97;;;;;;;;;;5013187;28;20199;-58
2021/07/14 13:15:54;;;;;;;11.85;5.75;;;;;;;;;;5015397;28;20058;-58
2021/07/14 13:18:20;;;;;;;16.88;6.18;;;;;;;;;;5009751;28;21054;-57
2021/07/14 13:20:50;;;;;;;13.90;5.95;;;;;;;;;;5011913;28;20533;-57
2021/07/14 13:23:26;;;;;;;15.57;6.20;;;;;;;;;;5011132;28;20507;-58
2021/07/14 13:25:52;;;;;;;12.68;6.18;;;;;;;;;;5011843;28;20045;-57
2021/07/14 13:28:23;;;;;;;12.65;6.32;;;;;;;;;;5010830;28;20033;-55
2021/07/14 13:30:49;;;;;;;14.52;6.28;;;;;;;;;;5014028;28;20045;-57
2021/07/14 13:33:35;;;;;;;14.88;6.28;;;;;;;;;;5011208;28;20149;-58
2021/07/14 13:36:02;;;;;;;17.23;6.50;;;;;;;;;;5009777;28;20133;-57
2021/07/14 13:38:38;;;;;;;17.13;6.50;;;;;;;;;;5007464;28;20100;-57
2021/07/14 13:41:13;;;;;;;15.15;6.22;;;;;;;;;;5009513;28;20045;-57
2021/07/14 13:43:39;;;;;;;12.57;6.75;;;;;;;;;;5008547;28;20085;-57
2021/07/14 13:46:05;;;;;;;11.15;6.50;;;;;;;;;;5008925;28;20548;-57
2021/07/14 13:48:32;;;;;;;12.15;6.57;;;;;;;;;;5009003;28;20049;-57
2021/07/14 13:50:58;;;;;;;14.50;6.80;;;;;;;;;;5011118;28;20058;-56
2021/07/14 13:53:29;;;;;;;12.32;6.57;;;;;;;;;;5011996;28;20049;-57
2021/07/14 13:56:02;;;;;;;11.88;6.30;;;;;;;;;;5009027;28;20034;-57
2021/07/14 13:58:27;;;;;;;;;;;;;;;;;;5008561;28;20076;-56
2021/07/14 14:00:57;;;;;;;14.00;6.30;;;;;;;;;;5009242;28;19925;-57
2021/07/14 14:03:23;;;;;;;12.30;6.00;;;;;;;;;;5007224;28;20054;-57
2021/07/14 14:06:02;;;;;;;11.52;5.63;;;;;;;;;;5009042;28;20045;-57
2021/07/14 14:08:27;;;;;;;13.63;6.68;;;;;;;;;;5009582;28;20034;-57
2021/07/14 14:10:55;;;;;;;12.00;5.68;;;;;;;;;;5010118;28;20063;-56
2021/07/14 14:13:30;;;;;;;12.93;6.80;;;;;;;;;;5010104;28;20054;-57
2021/07/14 14:15:56;;;;;;;13.80;6.63;;;;;;;;;;5009305;28;22012;-58
2021/07/14 14:18:22;;;;;;;10.23;5.82;;;;;;;;;;5007407;28;20068;-57
2021/07/14 14:20:48;;;;;;;10.73;5.90;;;;;;;;;;5009807;28;20882;-58
2021/07/14 14:23:14;;;;;;;9.38;5.45;;;;;;;;;;5008917;28;20038;-57
2021/07/14 14:25:45;;;;;;;10.30;5.72;;;;;;;;;;5008950;28;20034;-58
2021/07/14 14:28:15;;;;;;;11.50;5.60;;;;;;;;;;5009353;28;20220;-58
2021/07/14 14:30:42;;;;;;;13.60;6.68;;;;;;;;;;5008770;28;20608;-58
2021/07/14 14:33:08;;;;;;;11.52;5.63;;;;;;;;;;5008760;28;20478;-56
2021/07/14 14:35:37;;;;;;;12.50;6.03;;;;;;;;;;5008797;28;20041;-58
2021/07/14 14:38:08;;;;;;;9.82;5.70;;;;;;;;;;5010225;28;20034;-56
2021/07/14 14:40:35;;;;;;;13.73;6.60;;;;;;;;;;5008656;28;20056;-58
2021/07/14 14:43:01;;;;;;;12.50;6.10;;;;;;;;;;5009880;28;20049;-56
2021/07/14 14:45:27;;;;;;;11.95;5.85;;;;;;;;;;5008186;28;20046;-57
2021/07/14 14:47:53;;;;;;;15.73;6.03;;;;;;;;;;4997067;28;20034;-57
2021/07/14 14:50:19;;;;;;;11.23;6.30;;;;;;;;;;5009224;28;20121;-57